createdAt,value
2023-01-21T00:01:41.307Z,-2.60
2023-01-21T00:04:08.383Z,-2.66
2023-01-21T00:06:37.513Z,-2.60
2023-01-21T00:09:05.779Z,-2.59
2023-01-21T00:11:35.803Z,-2.69
2023-01-21T00:14:02.940Z,-2.67
2023-01-21T00:16:36.077Z,-2.71
2023-01-21T00:19:05.735Z,-2.81
2023-01-21T00:21:49.306Z,-2.81
2023-01-21T00:24:19.082Z,-2.89
2023-01-21T00:26:46.163Z,-2.82
2023-01-21T00:29:13.256Z,-2.81
2023-01-21T00:31:43.309Z,-2.81
2023-01-21T00:34:16.902Z,-2.86
2023-01-21T00:36:45.811Z,-2.90
2023-01-21T00:39:12.866Z,-2.82
2023-01-21T00:41:40.001Z,-2.83
2023-01-21T00:44:07.180Z,-2.83
2023-01-21T00:46:37.225Z,-2.91
2023-01-21T00:49:07.188Z,-2.96
2023-01-21T00:51:37.009Z,-2.95
2023-01-21T00:54:04.150Z,-3.12
2023-01-21T00:56:41.526Z,-3.11
2023-01-21T00:59:14.377Z,-3.18
2023-01-21T01:01:47.081Z,-3.17
2023-01-21T01:04:14.533Z,-3.18
2023-01-21T01:06:51.868Z,-3.17
2023-01-21T01:09:21.288Z,-3.10
2023-01-21T01:11:50.616Z,-3.10
2023-01-21T01:14:17.952Z,-3.12
2023-01-21T01:16:45.421Z,-3.24
2023-01-21T01:19:18.871Z,-3.15
2023-01-21T01:21:46.096Z,-3.13
2023-01-21T01:24:13.207Z,-3.09
2023-01-21T01:26:48.463Z,-3.10
2023-01-21T01:29:21.092Z,-3.10
2023-01-21T01:31:48.246Z,-3.09
2023-01-21T01:34:15.358Z,-3.11
2023-01-21T01:36:45.052Z,-3.19
2023-01-21T01:39:19.089Z,-3.13
2023-01-21T01:42:01.248Z,-3.15
2023-01-21T01:45:04.600Z,-3.23
2023-01-21T01:47:37.579Z,-3.28
2023-01-21T01:50:10.082Z,-3.26
2023-01-21T01:52:42.259Z,-3.19
2023-01-21T01:55:17.773Z,-3.19
2023-01-21T01:57:59.087Z,-3.12
2023-01-21T02:00:35.879Z,-3.11
2023-01-21T02:03:46.462Z,-3.09
2023-01-21T02:06:18.312Z,-3.07
2023-01-21T02:08:51.602Z,-3.09
2023-01-21T02:11:23.226Z,-3.10
2023-01-21T02:14:02.343Z,-3.15
2023-01-21T02:17:06.026Z,-3.10
2023-01-21T02:19:57.152Z,-3.11
2023-01-21T02:22:40.728Z,-3.12
2023-01-21T02:25:47.961Z,-3.15
2023-01-21T02:28:46.347Z,-3.12
2023-01-21T02:31:47.738Z,-3.14
2023-01-21T02:34:51.771Z,-3.17
2023-01-21T02:37:48.943Z,-3.22
2023-01-21T02:40:42.383Z,-3.22
2023-01-21T02:43:50.438Z,-3.27
2023-01-21T02:46:37.706Z,-3.31
2023-01-21T02:49:11.687Z,-3.38
2023-01-21T02:51:38.823Z,-3.42
2023-01-21T02:54:40.206Z,-3.40
2023-01-21T02:57:10.662Z,-3.42
2023-01-21T02:59:39.658Z,-3.45
2023-01-21T03:02:36.782Z,-3.45
2023-01-21T03:05:37.458Z,-3.48
2023-01-21T03:08:12.731Z,-3.46
2023-01-21T03:11:04.536Z,-3.45
2023-01-21T03:13:57.445Z,-3.42
2023-01-21T03:16:49.588Z,-3.36
2023-01-21T03:19:24.237Z,-3.37
2023-01-21T03:21:53.787Z,-3.35
2023-01-21T03:24:21.109Z,-3.37
2023-01-21T03:26:52.512Z,-3.38
2023-01-21T03:29:24.023Z,-3.37
2023-01-21T03:31:56.495Z,-3.38
2023-01-21T03:34:27.726Z,-3.40
2023-01-21T03:37:53.400Z,-3.37
2023-01-21T03:40:43.065Z,-3.40
2023-01-21T03:43:10.780Z,-3.40
2023-01-21T03:45:44.642Z,-3.36
2023-01-21T03:48:31.667Z,-3.38
2023-01-21T03:51:21.980Z,-3.39
2023-01-21T03:53:59.180Z,-3.38
2023-01-21T03:56:27.578Z,-3.35
2023-01-21T03:58:54.974Z,-3.41
2023-01-21T04:01:22.584Z,-3.37
2023-01-21T04:03:49.854Z,-3.41
2023-01-21T04:06:23.168Z,-3.35
2023-01-21T04:08:50.496Z,-3.36
2023-01-21T04:11:18.029Z,-3.30
2023-01-21T04:13:45.169Z,-3.32
2023-01-21T04:16:15.026Z,-3.31
2023-01-21T04:18:45.162Z,-3.32
2023-01-21T04:21:12.422Z,-3.31
2023-01-21T04:23:39.668Z,-3.29
2023-01-21T04:26:07.698Z,-3.30
2023-01-21T04:28:34.876Z,-3.27
2023-01-21T04:31:02.014Z,-3.33
2023-01-21T04:33:30.728Z,-3.41
2023-01-21T04:35:59.638Z,-3.44
2023-01-21T04:38:27.607Z,-3.46
2023-01-21T04:40:55.306Z,-3.41
2023-01-21T04:43:22.467Z,-3.47
2023-01-21T04:45:50.228Z,-3.48
2023-01-21T04:48:17.775Z,-3.46
2023-01-21T04:50:46.703Z,-3.43
2023-01-21T04:53:17.010Z,-3.46
2023-01-21T04:55:44.103Z,-3.43
2023-01-21T04:58:11.194Z,-3.40
2023-01-21T05:00:38.372Z,-3.41
2023-01-21T05:03:05.700Z,-3.40
2023-01-21T05:05:32.878Z,-3.42
2023-01-21T05:07:59.961Z,-3.54
2023-01-21T05:10:27.175Z,-3.62
2023-01-21T05:12:54.463Z,-3.62
2023-01-21T05:15:21.914Z,-3.57
2023-01-21T05:17:49.142Z,-3.54
2023-01-21T05:20:17.076Z,-3.49
2023-01-21T05:22:50.347Z,-3.57
2023-01-21T05:25:17.431Z,-3.48
2023-01-21T05:27:44.535Z,-3.40
2023-01-21T05:30:12.109Z,-3.47
2023-01-21T05:32:42.393Z,-3.44
2023-01-21T05:35:12.144Z,-3.49
2023-01-21T05:37:39.323Z,-3.50
2023-01-21T05:40:07.124Z,-3.61
2023-01-21T05:42:37.137Z,-3.70
2023-01-21T05:45:04.757Z,-3.62
2023-01-21T05:47:31.888Z,-3.68
2023-01-21T05:49:58.976Z,-3.68
2023-01-21T05:52:26.144Z,-3.75
2023-01-21T05:55:02.157Z,-3.75
2023-01-21T05:57:30.912Z,-3.71
2023-01-21T05:59:58.691Z,-3.71
2023-01-21T06:02:28.850Z,-3.70
2023-01-21T06:04:55.945Z,-3.68
2023-01-21T06:07:23.271Z,-3.70
2023-01-21T06:09:50.571Z,-3.72
2023-01-21T06:12:17.639Z,-3.62
2023-01-21T06:14:44.750Z,-3.60
2023-01-21T06:17:11.918Z,-3.57
2023-01-21T06:19:39.081Z,-3.60
2023-01-21T06:22:06.216Z,-3.59
2023-01-21T06:24:33.272Z,-3.64
2023-01-21T06:27:00.371Z,-3.56
2023-01-21T06:29:30.216Z,-3.50
2023-01-21T06:31:57.849Z,-3.45
2023-01-21T06:34:25.535Z,-3.50
2023-01-21T06:36:55.480Z,-3.48
2023-01-21T06:39:22.651Z,-3.50
2023-01-21T06:41:49.782Z,-3.52
2023-01-21T06:44:16.847Z,-3.47
2023-01-21T06:46:52.186Z,-3.40
2023-01-21T06:49:26.677Z,-3.41
2023-01-21T06:51:53.818Z,-3.34
2023-01-21T06:54:21.071Z,-3.34
2023-01-21T06:56:53.272Z,-3.44
2023-01-21T06:59:20.755Z,-3.48
2023-01-21T07:01:47.981Z,-3.42
2023-01-21T07:04:18.052Z,-3.45
2023-01-21T07:06:45.231Z,-3.40
2023-01-21T07:09:12.646Z,-3.48
2023-01-21T07:11:40.746Z,-3.47
2023-01-21T07:14:08.181Z,-3.47
2023-01-21T07:16:38.047Z,-3.42
2023-01-21T07:19:05.212Z,-3.43
2023-01-21T07:21:32.339Z,-3.50
2023-01-21T07:24:00.581Z,-3.48
2023-01-21T07:26:28.407Z,-3.54
2023-01-21T07:28:55.467Z,-3.50
2023-01-21T07:31:22.511Z,-3.46
2023-01-21T07:33:49.747Z,-3.39
2023-01-21T07:36:16.968Z,-3.34
2023-01-21T07:38:44.165Z,-3.34
2023-01-21T07:41:11.422Z,-3.31
2023-01-21T07:43:39.543Z,-3.28
2023-01-21T07:46:06.613Z,-3.26
2023-01-21T07:48:34.834Z,-3.29
2023-01-21T07:51:02.114Z,-3.27
2023-01-21T07:53:31.980Z,-3.24
2023-01-21T07:56:04.360Z,-3.29
2023-01-21T07:58:31.412Z,-3.30
2023-01-21T08:00:59.123Z,-3.26
2023-01-21T08:03:26.326Z,-3.20
2023-01-21T08:05:53.380Z,-3.20
2023-01-21T08:08:20.483Z,-3.14
2023-01-21T08:10:54.744Z,-3.14
2023-01-21T08:13:22.664Z,-3.10
2023-01-21T08:15:54.557Z,-3.04
2023-01-21T08:18:25.127Z,-3.05
2023-01-21T08:20:56.504Z,-3.10
2023-01-21T08:23:24.328Z,-3.05
2023-01-21T08:25:51.402Z,-3.09
2023-01-21T08:28:18.473Z,-3.04
2023-01-21T08:30:45.647Z,-3.03
2023-01-21T08:33:12.824Z,-2.98
2023-01-21T08:35:42.651Z,-2.97
2023-01-21T08:38:09.905Z,-2.89
2023-01-21T08:40:39.958Z,-2.88
2023-01-21T08:43:09.141Z,-2.91
2023-01-21T08:45:36.327Z,-2.94
2023-01-21T08:48:04.219Z,-2.84
2023-01-21T08:50:31.208Z,-2.95
2023-01-21T08:52:58.353Z,-2.92
2023-01-21T08:55:26.811Z,-2.95
2023-01-21T08:57:55.920Z,-2.99
2023-01-21T09:00:23.978Z,-2.89
2023-01-21T09:02:51.814Z,-2.94
2023-01-21T09:05:20.375Z,-2.91
2023-01-21T09:07:47.561Z,-2.83
2023-01-21T09:10:37.470Z,-2.78
2023-01-21T09:13:05.756Z,-2.73
2023-01-21T09:15:40.951Z,-2.74
2023-01-21T09:18:08.374Z,-2.79
2023-01-21T09:20:35.590Z,-2.78
2023-01-21T09:23:02.926Z,-2.75
2023-01-21T09:25:30.039Z,-2.71
2023-01-21T09:28:01.550Z,-2.68
2023-01-21T09:30:28.749Z,-2.59
2023-01-21T09:32:55.857Z,-2.65
2023-01-21T09:35:22.941Z,-2.60
2023-01-21T09:37:50.056Z,-2.60
2023-01-21T09:40:17.326Z,-2.60
2023-01-21T09:42:44.487Z,-2.57
2023-01-21T09:45:14.749Z,-2.56
2023-01-21T09:47:45.382Z,-2.49
2023-01-21T09:50:21.147Z,-2.51
2023-01-21T09:52:55.350Z,-2.43
2023-01-21T09:55:35.542Z,-2.55
2023-01-21T09:58:15.216Z,-2.54
2023-01-21T10:00:52.383Z,-2.37
2023-01-21T10:03:32.484Z,-2.47
2023-01-21T10:06:09.985Z,-2.40
2023-01-21T10:08:37.234Z,-2.39
2023-01-21T10:11:22.750Z,-2.39
2023-01-21T10:14:19.920Z,-2.41
2023-01-21T10:17:24.195Z,-2.40
2023-01-21T10:19:55.222Z,-2.40
2023-01-21T10:22:46.847Z,-2.41
2023-01-21T10:25:49.014Z,-2.32
2023-01-21T10:28:30.555Z,-2.31
2023-01-21T10:31:05.961Z,-2.31
2023-01-21T10:33:36.319Z,-2.31
2023-01-21T10:36:18.474Z,-2.30
2023-01-21T10:39:23.293Z,-2.31
2023-01-21T10:42:24.588Z,-2.28
2023-01-21T10:45:16.452Z,-2.29
2023-01-21T10:48:01.945Z,-2.28
2023-01-21T10:50:57.299Z,-2.17
2023-01-21T10:53:27.302Z,-2.20
2023-01-21T10:56:40.415Z,-2.18
2023-01-21T10:59:16.245Z,-2.14
2023-01-21T11:01:47.335Z,-2.18
2023-01-21T11:04:23.305Z,-2.13
2023-01-21T11:07:11.360Z,-2.09
2023-01-21T11:09:44.705Z,-2.11
2023-01-21T11:12:24.917Z,-2.14
2023-01-21T11:15:07.635Z,-2.14
2023-01-21T11:17:39.914Z,-2.09
2023-01-21T11:20:16.707Z,-2.08
2023-01-21T11:22:48.351Z,-1.96
2023-01-21T11:25:49.052Z,-1.96
2023-01-21T11:28:27.725Z,-1.99
2023-01-21T11:31:05.864Z,-2.02
2023-01-21T11:33:39.667Z,-2.02
2023-01-21T11:36:12.391Z,-2.00
2023-01-21T11:38:43.159Z,-1.97
2023-01-21T11:41:13.365Z,-1.97
2023-01-21T11:43:46.255Z,-1.99
2023-01-21T11:46:39.628Z,-1.98
2023-01-21T11:49:08.943Z,-1.95
2023-01-21T11:51:38.652Z,-1.97
2023-01-21T11:54:20.704Z,-1.97
2023-01-21T11:56:58.352Z,-1.93
2023-01-21T11:59:35.697Z,-1.89
2023-01-21T12:02:04.667Z,-1.83
2023-01-21T12:04:35.683Z,-1.77
2023-01-21T12:07:10.912Z,-1.78
2023-01-21T12:09:44.373Z,-1.78
2023-01-21T12:12:30.050Z,-1.77
2023-01-21T12:15:13.534Z,-1.73
2023-01-21T12:17:59.251Z,-1.70
2023-01-21T12:20:53.572Z,-1.69
2023-01-21T12:23:39.423Z,-1.72
2023-01-21T12:26:36.301Z,-1.73
2023-01-21T12:29:30.397Z,-1.69
2023-01-21T12:32:19.875Z,-1.66
2023-01-21T12:35:12.530Z,-1.71
2023-01-21T12:37:58.719Z,-1.71
2023-01-21T12:40:39.801Z,-1.63
2023-01-21T12:43:22.050Z,-1.69
2023-01-21T12:45:54.619Z,-1.64
2023-01-21T12:48:28.267Z,-1.67
2023-01-21T12:51:05.362Z,-1.62
2023-01-21T12:53:52.115Z,-1.60
2023-01-21T12:56:45.618Z,-1.64
2023-01-21T12:59:31.835Z,-1.58
2023-01-21T13:02:29.787Z,-1.50
2023-01-21T13:05:49.902Z,-1.45
2023-01-21T13:19:49.428Z,-1.37
2023-01-21T13:22:47.749Z,-1.34
2023-01-21T13:25:50.401Z,-1.35
2023-01-21T13:28:25.366Z,-1.32
2023-01-21T13:30:59.501Z,-1.37
2023-01-21T13:33:58.125Z,-1.34
2023-01-21T13:36:39.618Z,-1.36
2023-01-21T13:39:49.929Z,-1.44
2023-01-21T13:42:36.579Z,-1.49
2023-01-21T13:45:35.194Z,-1.55
2023-01-21T13:48:41.282Z,-1.61
2023-01-21T13:51:09.038Z,-1.62
2023-01-21T13:53:44.422Z,-1.59
2023-01-21T13:56:30.519Z,-1.60
2023-01-21T13:59:08.661Z,-1.65
2023-01-21T14:01:47.630Z,-1.65
2023-01-21T14:04:23.261Z,-1.69
2023-01-21T14:07:17.947Z,-1.72
2023-01-21T14:09:54.239Z,-1.73
2023-01-21T14:12:49.661Z,-1.74
2023-01-21T14:15:35.777Z,-1.75
2023-01-21T14:18:33.307Z,-1.75
2023-01-21T14:21:06.685Z,-1.73
2023-01-21T14:23:46.651Z,-1.73
2023-01-21T14:26:14.293Z,-1.74
2023-01-21T14:29:01.607Z,-1.75
2023-01-21T14:32:12.852Z,-1.76
2023-01-21T14:34:50.245Z,-1.74
2023-01-21T14:37:29.918Z,-1.71
2023-01-21T14:40:11.125Z,-1.74
2023-01-21T14:42:45.072Z,-1.74
2023-01-21T14:45:15.106Z,-1.74
2023-01-21T14:47:46.603Z,-1.71
2023-01-21T14:50:47.502Z,-1.73
2023-01-21T14:53:22.399Z,-1.73
2023-01-21T14:56:32.804Z,-1.74
2023-01-21T14:59:05.846Z,-1.74
2023-01-21T15:01:42.435Z,-1.74
2023-01-21T15:04:35.407Z,-1.77
2023-01-21T15:07:10.383Z,-1.79
2023-01-21T15:09:44.311Z,-1.78
2023-01-21T15:12:27.367Z,-1.77
2023-01-21T15:15:01.862Z,-1.77
2023-01-21T15:17:59.596Z,-1.77
2023-01-21T15:20:42.389Z,-1.79
2023-01-21T15:23:31.558Z,-1.78
2023-01-21T15:26:08.472Z,-1.79
2023-01-21T15:28:44.992Z,-1.77
2023-01-21T15:31:21.707Z,-1.76
2023-01-21T15:33:54.872Z,-1.80
2023-01-21T15:36:27.322Z,-1.79
2023-01-21T15:39:01.956Z,-1.77
2023-01-21T15:42:09.619Z,-1.78
2023-01-21T15:45:27.383Z,-1.79
2023-01-21T15:48:18.269Z,-1.78
2023-01-21T15:51:19.007Z,-1.77
2023-01-21T15:53:54.048Z,-1.78
2023-01-21T15:56:51.067Z,-1.76
2023-01-21T15:59:30.704Z,-1.77
2023-01-21T16:02:22.909Z,-1.76
2023-01-21T16:04:58.604Z,-1.77
2023-01-21T16:07:43.977Z,-1.72
2023-01-21T16:10:26.356Z,-1.75
2023-01-21T16:13:16.920Z,-1.74
2023-01-21T16:16:18.375Z,-1.73
2023-01-21T16:19:04.311Z,-1.75
2023-01-21T16:21:35.619Z,-1.73
2023-01-21T16:24:08.539Z,-1.69
2023-01-21T16:26:36.570Z,-1.68
2023-01-21T16:29:13.359Z,-1.71
2023-01-21T16:31:52.339Z,-1.71
2023-01-21T16:34:41.828Z,-1.69
2023-01-21T16:37:18.093Z,-1.68
2023-01-21T16:39:46.353Z,-1.66
2023-01-21T16:42:32.169Z,-1.63
2023-01-21T16:45:00.685Z,-1.64
2023-01-21T16:47:37.396Z,-1.67
2023-01-21T16:50:05.672Z,-1.60
2023-01-21T16:52:34.456Z,-1.59
2023-01-21T16:55:02.171Z,-1.61
2023-01-21T16:57:32.011Z,-1.58
2023-01-21T17:00:02.324Z,-1.60
2023-01-21T17:02:32.597Z,-1.56
2023-01-21T17:05:06.491Z,-1.54
2023-01-21T17:07:58.640Z,-1.57
2023-01-21T17:10:53.836Z,-1.59
2023-01-21T17:13:22.386Z,-1.55
2023-01-21T17:15:58.248Z,-1.53
2023-01-21T17:18:30.432Z,-1.53
2023-01-21T17:21:28.093Z,-1.48
2023-01-21T17:24:07.885Z,-1.46
2023-01-21T17:26:40.198Z,-1.47
2023-01-21T17:29:16.371Z,-1.47
2023-01-21T17:31:45.195Z,-1.42
2023-01-21T17:34:15.991Z,-1.37
2023-01-21T17:36:45.742Z,-1.36
2023-01-21T17:39:13.594Z,-1.36
2023-01-21T17:41:46.364Z,-1.37
2023-01-21T17:44:24.174Z,-1.36
2023-01-21T17:46:54.374Z,-1.37
2023-01-21T17:49:25.366Z,-1.36
2023-01-21T17:51:55.646Z,-1.33
2023-01-21T17:54:29.857Z,-1.33
2023-01-21T17:56:59.446Z,-1.31
2023-01-21T17:59:43.253Z,-1.33
2023-01-21T18:02:14.854Z,-1.31
2023-01-21T18:04:42.941Z,-1.34
2023-01-21T18:07:26.515Z,-1.29
2023-01-21T18:10:00.127Z,-1.30
2023-01-21T18:12:27.780Z,-1.24
2023-01-21T18:14:55.387Z,-1.26
2023-01-21T18:17:25.025Z,-1.33
2023-01-21T18:19:52.434Z,-1.25
2023-01-21T18:22:31.109Z,-1.28
2023-01-21T18:25:02.872Z,-1.28
2023-01-21T18:27:31.899Z,-1.30
2023-01-21T18:29:59.631Z,-1.28
2023-01-21T18:32:27.288Z,-1.25
2023-01-21T18:35:01.007Z,-1.21
2023-01-21T18:37:30.830Z,-1.25
2023-01-21T18:39:58.292Z,-1.29
2023-01-21T18:42:27.467Z,-1.26
2023-01-21T18:44:56.273Z,-1.31
2023-01-21T18:47:23.741Z,-1.23
2023-01-21T18:49:51.348Z,-1.21
2023-01-21T18:52:21.862Z,-1.21
2023-01-21T18:54:49.356Z,-1.25
2023-01-21T18:57:20.329Z,-1.24
2023-01-21T18:59:47.684Z,-1.28
2023-01-21T19:02:21.516Z,-1.28
2023-01-21T19:04:49.710Z,-1.24
2023-01-21T19:07:20.090Z,-1.23
2023-01-21T19:09:50.016Z,-1.25
2023-01-21T19:12:21.150Z,-1.20
2023-01-21T19:14:48.984Z,-1.21
2023-01-21T19:17:20.347Z,-1.19
2023-01-21T19:19:48.498Z,-1.26
2023-01-21T19:22:16.449Z,-1.26
2023-01-21T19:24:44.435Z,-1.22
2023-01-21T19:27:27.945Z,-1.20
2023-01-21T19:29:56.497Z,-1.16
2023-01-21T19:32:23.831Z,-1.22
2023-01-21T19:34:52.430Z,-1.22
2023-01-21T19:37:23.306Z,-1.17
2023-01-21T19:39:51.393Z,-1.18
2023-01-21T19:42:19.205Z,-1.16
2023-01-21T19:44:46.852Z,-1.18
2023-01-21T19:47:24.179Z,-1.17
2023-01-21T19:49:51.735Z,-1.15
2023-01-21T19:52:19.179Z,-1.19
2023-01-21T19:54:46.594Z,-1.19
2023-01-21T19:57:17.917Z,-1.24
2023-01-21T19:59:52.348Z,-1.20
2023-01-21T20:02:20.166Z,-1.18
2023-01-21T20:04:47.819Z,-1.19
2023-01-21T20:07:16.336Z,-1.26
2023-01-21T20:09:43.716Z,-1.19
2023-01-21T20:12:13.205Z,-1.11
2023-01-21T20:14:40.619Z,-1.18
2023-01-21T20:17:13.403Z,-1.18
2023-01-21T20:19:41.061Z,-1.18
2023-01-21T20:22:14.489Z,-1.20
2023-01-21T20:24:44.312Z,-1.11
2023-01-21T20:27:14.390Z,-1.18
2023-01-21T20:29:49.423Z,-1.20
2023-01-21T20:32:23.300Z,-1.16
2023-01-21T20:34:50.538Z,-1.21
2023-01-21T20:37:18.041Z,-1.19
2023-01-21T20:39:45.261Z,-1.16
2023-01-21T20:42:12.785Z,-1.15
2023-01-21T20:44:40.108Z,-1.22
2023-01-21T20:47:10.480Z,-1.13
2023-01-21T20:49:38.019Z,-1.19
2023-01-21T20:52:05.396Z,-1.12
2023-01-21T20:54:32.691Z,-1.13
2023-01-21T20:57:00.022Z,-1.16
2023-01-21T20:59:27.670Z,-1.14
2023-01-21T21:01:56.102Z,-1.15
2023-01-21T21:04:25.345Z,-1.20
2023-01-21T21:06:52.998Z,-1.20
2023-01-21T21:09:22.158Z,-1.21
2023-01-21T21:11:50.033Z,-1.19
2023-01-21T21:14:18.229Z,-1.17
2023-01-21T21:16:45.559Z,-1.20
2023-01-21T21:19:13.355Z,-1.21
2023-01-21T21:21:40.751Z,-1.18
2023-01-21T21:24:08.349Z,-1.21
2023-01-21T21:26:37.520Z,-1.23
2023-01-21T21:29:05.044Z,-1.17
2023-01-21T21:31:34.010Z,-1.21
2023-01-21T21:34:02.678Z,-1.23
2023-01-21T21:36:30.262Z,-1.17
2023-01-21T21:38:57.824Z,-1.19
2023-01-21T21:41:44.922Z,-1.14
2023-01-21T21:44:15.329Z,-1.12
2023-01-21T21:47:01.217Z,-1.19
2023-01-21T21:49:29.624Z,-1.17
2023-01-21T21:52:00.485Z,-1.14
2023-01-21T21:54:27.990Z,-1.24
2023-01-21T21:56:55.544Z,-1.19
2023-01-21T21:59:23.003Z,-1.11
2023-01-21T22:01:50.334Z,-1.10
2023-01-21T22:04:17.818Z,-1.15
2023-01-21T22:06:45.931Z,-1.16
2023-01-21T22:09:13.563Z,-1.19
2023-01-21T22:11:41.026Z,-1.16
2023-01-21T22:14:08.639Z,-1.19
2023-01-21T22:16:36.536Z,-1.21
2023-01-21T22:19:04.758Z,-1.12
2023-01-21T22:21:34.297Z,-1.18
2023-01-21T22:24:03.322Z,-1.13
2023-01-21T22:26:30.908Z,-1.13
2023-01-21T22:28:58.306Z,-1.13
2023-01-21T22:31:28.539Z,-1.13
2023-01-21T22:33:57.398Z,-1.18
2023-01-21T22:36:26.827Z,-1.17
2023-01-21T22:38:54.742Z,-1.16
2023-01-21T22:41:23.047Z,-1.23
2023-01-21T22:43:51.145Z,-1.28
2023-01-21T22:46:24.229Z,-1.23
2023-01-21T22:48:55.050Z,-1.20
2023-01-21T22:51:23.380Z,-1.19
2023-01-21T22:53:52.686Z,-1.18
2023-01-21T22:56:31.518Z,-1.17
2023-01-21T22:59:03.233Z,-1.25
2023-01-21T23:01:31.720Z,-1.28
2023-01-21T23:03:59.933Z,-1.26
2023-01-21T23:06:27.886Z,-1.23
2023-01-21T23:08:55.810Z,-1.19
2023-01-21T23:11:23.075Z,-1.21
2023-01-21T23:13:52.883Z,-1.16
2023-01-21T23:16:21.227Z,-1.26
2023-01-21T23:18:49.124Z,-1.22
2023-01-21T23:21:18.238Z,-1.28
2023-01-21T23:23:45.655Z,-1.18
2023-01-21T23:26:13.957Z,-1.19
2023-01-21T23:28:41.520Z,-1.15
2023-01-21T23:31:16.461Z,-1.17
2023-01-21T23:33:44.933Z,-1.20
2023-01-21T23:36:15.889Z,-1.23
2023-01-21T23:38:44.047Z,-1.26
2023-01-21T23:41:14.265Z,-1.25
2023-01-21T23:43:41.954Z,-1.26
2023-01-21T23:46:16.438Z,-1.26
2023-01-21T23:48:44.074Z,-1.19
2023-01-21T23:51:13.857Z,-1.19
2023-01-21T23:53:41.334Z,-1.26
2023-01-21T23:56:13.251Z,-1.23
2023-01-21T23:58:41.161Z,-1.24
